Time;durP1;ratioP1;P1;durP2;ratioP2;P2;SDS_P1;SDS_P2;PMS_P1;PMS_P2;Temp;Humidity;BMP_temperature;BMP_pressure;BME280_temperature;BME280_humidity;BME280_pressure;Samples;Min_cycle;Max_cycle;Signal;HPM_P1;HPM_P2
2023/06/26 00:01:42;;;;;;;0.77;0.77;;;;;;;22.90;100.00;99728.50;5073270;28;20198;-73
2023/06/26 00:04:14;;;;;;;0.80;0.80;;;;;;;23.08;100.00;99764.78;5073254;28;20198;-73
2023/06/26 00:06:41;;;;;;;0.68;0.68;;;;;;;23.16;100.00;99762.69;5072271;28;20223;-74
2023/06/26 00:09:07;;;;;;;0.82;0.80;;;;;;;23.19;100.00;99759.91;5073058;28;20609;-73
2023/06/26 00:11:34;;;;;;;0.60;0.60;;;;;;;23.08;100.00;99764.78;5073101;28;20198;-73
2023/06/26 00:14:01;;;;;;;1.27;0.93;;;;;;;22.91;100.00;99746.09;5073038;28;20256;-73
2023/06/26 00:16:30;;;;;;;0.70;0.70;;;;;;;23.15;100.00;99763.59;5073202;28;20207;-73
2023/06/26 00:18:58;;;;;;;0.85;0.85;;;;;;;23.06;100.00;99765.78;5072671;28;20282;-73
2023/06/26 00:21:25;;;;;;;0.70;0.70;;;;;;;22.92;100.00;99731.09;5072791;28;20282;-74
2023/06/26 00:23:52;;;;;;;1.00;0.90;;;;;;;23.03;100.00;99756.19;5072088;28;20689;-73
2023/06/26 00:26:18;;;;;;;0.93;0.90;;;;;;;22.89;100.00;99753.25;5071312;28;20226;-73
2023/06/26 00:28:45;;;;;;;0.90;0.80;;;;;;;22.95;100.00;99749.47;5072002;28;20644;-73
2023/06/26 00:31:12;;;;;;;0.85;0.85;;;;;;;23.03;100.00;99745.59;5072643;28;20697;-73
2023/06/26 00:33:40;;;;;;;0.80;0.80;;;;;;;23.10;100.00;99752.38;5072683;28;20191;-73
2023/06/26 00:36:07;;;;;;;0.73;0.73;;;;;;;23.10;100.00;99752.38;5073370;28;20262;-74
2023/06/26 00:38:34;;;;;;;0.82;0.80;;;;;;;23.08;100.00;99740.97;5072436;28;20195;-74
2023/06/26 00:41:00;;;;;;;0.73;0.65;;;;;;;23.10;100.00;99739.13;5072752;28;20275;-73
2023/06/26 00:43:27;;;;;;;0.80;0.80;;;;;;;23.22;100.00;99748.34;5072739;28;20203;-73
2023/06/26 00:45:54;;;;;;;1.60;1.08;;;;;;;23.37;100.00;99754.75;5072666;28;20222;-73
2023/06/26 00:48:21;;;;;;;1.33;1.33;;;;;;;23.44;100.00;99764.19;5072602;28;20198;-73
2023/06/26 00:50:49;;;;;;;0.70;0.70;;;;;;;23.50;100.00;99756.00;5072467;28;20613;-73
2023/06/26 00:53:16;;;;;;;0.80;0.80;;;;;;;23.28;100.00;99760.44;5072431;28;20203;-73
2023/06/26 00:55:43;;;;;;;0.80;0.80;;;;;;;23.17;100.00;99755.59;5072107;28;20202;-73
2023/06/26 00:58:10;;;;;;;0.98;0.82;;;;;;;23.25;100.00;99755.28;5053207;28;20348;-72
2023/06/26 01:00:37;;;;;;;0.70;0.70;;;;;;;23.08;100.00;99742.78;5072456;28;20214;-74
2023/06/26 01:03:03;;;;;;;2.05;0.98;;;;;;;23.20;100.00;99756.34;5072153;28;20191;-73
2023/06/26 01:05:30;;;;;;;0.70;0.70;;;;;;;23.24;100.00;99749.13;5072043;28;20229;-73
2023/06/26 01:08:00;;;;;;;0.82;0.80;;;;;;;23.40;100.00;99746.72;5072055;28;20195;-73
2023/06/26 01:10:28;;;;;;;0.60;0.60;;;;;;;23.31;100.00;99752.38;5072242;28;20743;-73
2023/06/26 01:12:55;;;;;;;2.17;1.08;;;;;;;23.29;100.00;99746.31;5071944;28;20226;-73
2023/06/26 01:15:22;;;;;;;0.65;0.65;;;;;;;23.34;100.00;99754.91;5071922;28;20260;-73
2023/06/26 01:17:50;;;;;;;0.77;0.77;;;;;;;23.46;100.00;99759.72;5071998;28;20207;-73
2023/06/26 01:20:18;;;;;;;0.63;0.63;;;;;;;23.48;100.00;99758.72;5071984;28;20198;-73
2023/06/26 01:22:57;;;;;;;0.60;0.60;;;;;;;23.42;100.00;99758.13;5072113;28;20203;-74
2023/06/26 01:25:38;;;;;;;0.63;0.63;;;;;;;23.35;100.00;99749.56;5071841;28;20195;-73
2023/06/26 01:28:07;;;;;;;1.50;0.95;;;;;;;23.34;100.00;99754.91;5071503;28;20583;-73
2023/06/26 01:30:37;;;;;;;0.70;0.70;;;;;;;23.45;100.00;99763.28;5071519;28;20705;-73
2023/06/26 01:33:05;;;;;;;1.33;0.88;;;;;;;23.50;100.00;99763.94;5061189;28;20629;-74
2023/06/26 01:35:32;;;;;;;0.60;0.60;;;;;;;23.51;100.00;99757.72;5071961;28;20203;-73
2023/06/26 01:38:13;;;;;;;1.23;1.00;;;;;;;23.69;100.00;99755.13;5071764;28;20666;-73
2023/06/26 01:40:39;;;;;;;0.80;0.80;;;;;;;23.48;100.00;99736.66;5053276;28;20241;-73
2023/06/26 01:43:16;;;;;;;0.95;0.90;;;;;;;23.66;100.00;99762.34;5071640;28;20233;-74
2023/06/26 01:45:46;;;;;;;1.42;1.33;;;;;;;23.49;100.00;99760.44;5072019;28;20202;-73
2023/06/26 01:48:17;;;;;;;0.80;0.80;;;;;;;23.44;100.00;99757.13;5071202;28;20674;-73
2023/06/26 01:50:45;;;;;;;2.95;1.33;;;;;;;23.47;100.00;99758.78;5071531;28;20214;-73
2023/06/26 01:53:16;;;;;;;0.98;0.90;;;;;;;23.54;100.00;99757.59;5071695;28;20205;-73
2023/06/26 01:55:47;;;;;;;0.70;0.70;;;;;;;23.53;100.00;99755.88;5071539;28;20213;-74
2023/06/26 01:58:17;;;;;;;0.65;0.65;;;;;;;23.40;100.00;99725.53;5071561;28;20203;-79
2023/06/26 02:00:44;;;;;;;0.70;0.70;;;;;;;23.58;100.00;99732.72;5071087;28;20681;-74
2023/06/26 02:03:11;;;;;;;1.00;0.88;;;;;;;23.70;100.00;99756.00;5070307;28;20198;-74
2023/06/26 02:05:37;;;;;;;0.70;0.70;;;;;;;23.77;100.00;99753.94;5070568;28;20625;-75
2023/06/26 02:08:05;;;;;;;0.98;0.90;;;;;;;23.82;100.00;99760.75;5070346;28;20690;-74
2023/06/26 02:10:31;;;;;;;0.70;0.70;;;;;;;23.77;100.00;99744.22;5071573;28;20190;-74
2023/06/26 02:12:58;;;;;;;1.55;0.98;;;;;;;23.78;100.00;99759.19;5071185;28;20210;-74
2023/06/26 02:15:26;;;;;;;0.77;0.77;;;;;;;23.79;100.00;99752.97;5071098;28;20571;-74
2023/06/26 02:17:53;;;;;;;0.60;0.60;;;;;;;23.61;100.00;99753.78;5070741;28;20194;-74
2023/06/26 02:20:20;;;;;;;1.38;0.90;;;;;;;23.42;100.00;99747.53;5052107;28;20209;-74
2023/06/26 02:22:46;;;;;;;0.60;0.60;;;;;;;23.41;100.00;99735.19;5035950;28;20202;-74
2023/06/26 02:25:13;;;;;;;0.80;0.80;;;;;;;23.62;100.00;99737.78;5071130;28;20195;-74
2023/06/26 02:27:40;;;;;;;0.80;0.80;;;;;;;23.42;100.00;99736.94;5070104;28;20222;-74
2023/06/26 02:30:08;;;;;;;0.90;0.90;;;;;;;23.50;100.00;99719.81;5071002;28;20206;-74
2023/06/26 02:32:37;;;;;;;0.60;0.60;;;;;;;23.73;100.00;99737.31;5070628;28;20199;-74
2023/06/26 02:35:04;;;;;;;1.20;0.88;;;;;;;23.75;100.00;99731.97;5071245;28;20289;-74
2023/06/26 02:37:31;;;;;;;0.95;0.70;;;;;;;23.73;100.00;99732.03;5070840;28;20195;-75
2023/06/26 02:39:59;;;;;;;0.80;0.80;;;;;;;23.74;100.00;99728.47;5023007;28;20199;-74
2023/06/26 02:42:25;;;;;;;1.48;1.27;;;;;;;23.70;100.00;99732.16;5048135;28;20218;-74
2023/06/26 02:44:52;;;;;;;0.60;0.60;;;;;;;23.66;100.00;99727.94;5062324;28;20720;-74
2023/06/26 02:47:19;;;;;;;0.80;0.80;;;;;;;23.63;100.00;99736.00;5052031;28;20689;-75
2023/06/26 02:49:47;;;;;;;0.60;0.60;;;;;;;23.78;100.00;99727.41;5073131;28;20572;-74
2023/06/26 02:52:14;;;;;;;0.90;0.90;;;;;;;23.69;100.00;99735.72;5074705;28;20268;-74
2023/06/26 02:54:41;;;;;;;0.70;0.70;;;;;;;23.73;100.00;99739.97;5074196;28;20198;-74
2023/06/26 02:57:07;;;;;;;0.95;0.85;;;;;;;23.63;100.00;99725.44;5074269;28;20202;-74
2023/06/26 02:59:35;;;;;;;1.45;0.88;;;;;;;23.86;100.00;99735.88;5074401;28;20638;-74
2023/06/26 03:02:02;;;;;;;0.80;0.80;;;;;;;23.65;100.00;99739.47;5074663;28;20190;-74
2023/06/26 03:04:29;;;;;;;9.70;5.00;;;;;;;23.57;100.00;99728.34;5074704;28;20264;-75
2023/06/26 03:06:57;;;;;;;0.70;0.70;;;;;;;23.76;100.00;99733.69;5074141;28;20226;-74
2023/06/26 03:09:24;;;;;;;2.47;1.08;;;;;;;23.26;100.00;99669.72;5074496;28;20263;-74
2023/06/26 03:11:52;;;;;;;0.77;0.77;;;;;;;23.68;100.00;99744.63;5037302;28;20199;-74
2023/06/26 03:14:19;;;;;;;0.82;0.82;;;;;;;23.74;100.00;99749.66;5074549;28;20302;-74
2023/06/26 03:16:46;;;;;;;0.77;0.77;;;;;;;23.69;100.00;99727.78;5073709;28;20670;-74
2023/06/26 03:19:13;;;;;;;0.90;0.82;;;;;;;23.79;100.00;99742.38;5038875;28;20198;-74
2023/06/26 03:21:39;;;;;;;0.80;0.80;;;;;;;23.85;100.00;99747.38;5054997;28;20630;-74
2023/06/26 03:24:08;;;;;;;0.80;0.80;;;;;;;24.05;100.00;99749.13;5073841;28;20190;-74
2023/06/26 03:26:34;;;;;;;0.80;0.80;;;;;;;23.97;100.00;99746.81;5074001;28;20238;-74
2023/06/26 03:29:01;;;;;;;0.70;0.70;;;;;;;24.05;100.00;99746.47;5065707;28;20202;-74
2023/06/26 03:31:28;;;;;;;0.93;0.82;;;;;;;24.06;100.00;99741.13;5074024;28;20775;-74
2023/06/26 03:33:55;;;;;;;0.60;0.60;;;;;;;24.10;100.00;99742.72;5073721;28;20268;-74
2023/06/26 03:36:21;;;;;;;1.42;0.90;;;;;;;24.11;100.00;99744.41;5074113;28;20592;-74
2023/06/26 03:38:48;;;;;;;0.70;0.70;;;;;;;24.12;100.00;99740.84;5073995;28;20260;-74
2023/06/26 03:41:16;;;;;;;0.70;0.70;;;;;;;24.33;100.00;99741.66;5073811;28;20199;-74
2023/06/26 03:43:43;;;;;;;0.80;0.80;;;;;;;24.17;100.00;99741.53;5073399;28;20210;-74
2023/06/26 03:46:10;;;;;;;0.88;0.77;;;;;;;23.66;100.00;99661.75;5074162;28;20210;-73
2023/06/26 03:48:37;;;;;;;0.73;0.73;;;;;;;24.12;100.00;99737.31;5073425;28;20195;-73
2023/06/26 03:51:06;;;;;;;0.70;0.70;;;;;;;24.21;100.00;99739.59;5073817;28;20198;-73
2023/06/26 03:53:33;;;;;;;3.17;1.58;;;;;;;24.10;100.00;99733.91;5073752;28;20283;-73
2023/06/26 03:56:00;;;;;;;0.80;0.80;;;;;;;24.22;100.00;99736.03;5073840;28;20569;-74
2023/06/26 03:58:28;;;;;;;1.92;1.48;;;;;;;24.44;100.00;99735.84;5070413;28;20264;-73
2023/06/26 04:00:55;;;;;;;0.70;0.70;;;;;;;24.55;100.00;99738.84;5071669;28;20206;-74
2023/06/26 04:03:22;;;;;;;1.25;0.95;;;;;;;25.12;100.00;99741.38;5073662;28;20202;-72
2023/06/26 04:05:49;;;;;;;0.80;0.80;;;;;;;25.46;100.00;99687.44;5073091;28;20685;-73
2023/06/26 04:08:15;;;;;;;0.77;0.77;;;;;;;26.24;100.00;99771.00;5073015;28;20222;-73
2023/06/26 04:10:45;;;;;;;1.23;0.98;;;;;;;26.44;100.00;99773.44;5073150;28;20195;-73
2023/06/26 04:13:12;;;;;;;1.58;1.10;;;;;;;26.72;100.00;99778.09;5073543;28;20198;-74
2023/06/26 04:15:40;;;;;;;0.70;0.70;;;;;;;26.68;100.00;99784.53;5038410;28;20199;-76
2023/06/26 04:18:07;;;;;;;1.45;1.00;;;;;;;26.27;100.00;99781.47;5073469;28;20205;-74
2023/06/26 04:20:34;;;;;;;3.03;1.02;;;;;;;26.35;100.00;99784.59;5073415;28;20221;-73
2023/06/26 04:23:01;;;;;;;4.22;1.10;;;;;;;26.34;100.00;99772.22;5073392;28;20657;-73
2023/06/26 04:25:32;;;;;;;3.75;1.02;;;;;;;26.14;100.00;99794.53;5073175;28;20205;-72
2023/06/26 04:27:59;;;;;;;2.25;0.90;;;;;;;25.76;100.00;99793.88;5073323;28;20708;-72
2023/06/26 04:30:26;;;;;;;3.63;1.05;;;;;;;25.64;100.00;99786.56;5037692;28;20226;-74
2023/06/26 04:32:58;;;;;;;0.90;0.90;;;;;;;25.71;100.00;99782.66;5037979;28;20268;-74
2023/06/26 04:35:25;;;;;;;3.70;1.02;;;;;;;25.61;100.00;99779.59;5073273;28;20198;-72
2023/06/26 04:37:52;;;;;;;2.42;1.00;;;;;;;25.76;100.00;99785.91;5073022;28;20203;-74
2023/06/26 04:40:18;;;;;;;0.85;0.85;;;;;;;25.85;100.00;99787.25;5064056;28;20203;-73
2023/06/26 04:42:45;;;;;;;7.93;1.48;;;;;;;25.98;100.00;99789.16;5070171;28;20219;-72
2023/06/26 04:45:12;;;;;;;1.00;0.90;;;;;;;26.10;100.00;99793.00;5064620;28;20210;-72
2023/06/26 04:47:39;;;;;;;2.28;0.90;;;;;;;26.20;100.00;99793.38;5066918;28;20281;-73
2023/06/26 04:50:09;;;;;;;3.88;1.52;;;;;;;26.31;100.00;99798.97;5062190;28;20203;-73
2023/06/26 04:52:35;;;;;;;3.40;1.20;;;;;;;26.38;100.00;99801.22;5071676;28;20241;-73
2023/06/26 04:55:02;;;;;;;0.70;0.70;;;;;;;26.67;100.00;99796.97;5070352;28;20206;-74
2023/06/26 04:57:29;;;;;;;3.70;1.00;;;;;;;26.68;100.00;99792.53;5069373;28;20252;-75
2023/06/26 04:59:56;;;;;;;9.05;1.55;;;;;;;26.80;100.00;99787.34;5071529;28;20210;-74
2023/06/26 05:02:22;;;;;;;1.90;0.85;;;;;;;26.91;100.00;99802.75;5070624;28;20198;-74
2023/06/26 05:04:49;;;;;;;2.70;1.00;;;;;;;26.62;100.00;99799.00;5071199;28;20214;-74
2023/06/26 05:07:17;;;;;;;1.48;0.85;;;;;;;26.61;100.00;99797.31;5071399;28;20653;-75
2023/06/26 05:09:44;;;;;;;8.98;1.40;;;;;;;26.28;100.00;99785.84;5071177;28;20268;-74
2023/06/26 05:12:12;;;;;;;2.03;0.80;;;;;;;26.08;100.00;99777.09;5067176;28;20203;-74
2023/06/26 05:14:39;;;;;;;3.50;1.13;;;;;;;26.38;100.00;99803.03;5063843;28;20647;-73
2023/06/26 05:17:06;;;;;;;1.30;0.90;;;;;;;26.55;100.00;99808.28;5070816;28;20705;-75
2023/06/26 05:19:32;;;;;;;3.65;0.88;;;;;;;26.20;100.00;99751.72;5071185;28;20653;-75
2023/06/26 05:22:03;;;;;;;9.70;1.42;;;;;;;26.81;100.00;99823.66;5068226;28;20206;-76
2023/06/26 05:24:31;;;;;;;0.85;0.73;;;;;;;27.51;100.00;99820.56;5061806;28;20611;-75
2023/06/26 05:26:59;;;;;;;2.08;0.90;;;;;;;28.63;100.00;99823.50;5058207;28;20218;-76
2023/06/26 05:29:26;;;;;;;1.40;0.70;;;;;;;29.76;100.00;99844.53;5053929;28;20216;-77
2023/06/26 05:31:56;;;;;;;2.90;0.80;;;;;;;30.20;100.00;99854.03;5068983;28;20239;-76
2023/06/26 05:34:25;;;;;;;0.95;0.68;;;;;;;30.63;95.54;99851.91;5067351;28;20252;-77
2023/06/26 05:36:53;;;;;;;1.10;0.75;;;;;;;30.52;93.26;99846.47;5063732;28;20279;-76
2023/06/26 05:39:20;;;;;;;0.60;0.60;;;;;;;30.36;94.31;99852.84;5064422;28;20213;-76
2023/06/26 05:41:49;;;;;;;5.30;1.13;;;;;;;29.81;90.65;99850.44;5064599;28;20329;-74
2023/06/26 05:44:15;;;;;;;2.55;0.93;;;;;;;29.72;91.49;99842.16;5020664;28;20207;-73
2023/06/26 05:46:42;;;;;;;1.35;0.77;;;;;;;29.63;92.50;99846.34;5060934;28;20206;-73
2023/06/26 05:49:09;;;;;;;1.00;0.70;;;;;;;29.87;93.91;99850.06;5051347;28;20203;-74
2023/06/26 05:51:39;;;;;;;1.25;0.77;;;;;;;29.93;95.57;99838.94;5067660;28;20211;-73
2023/06/26 05:54:06;;;;;;;1.45;0.60;;;;;;;29.36;95.27;99859.69;5070907;28;20207;-73
2023/06/26 05:56:34;;;;;;;0.75;0.70;;;;;;;29.00;95.87;99854.91;5070696;28;20259;-73
2023/06/26 05:59:03;;;;;;;1.08;0.65;;;;;;;28.79;99.66;99842.09;5036178;28;20194;-73
2023/06/26 06:01:30;;;;;;;0.68;0.68;;;;;;;28.60;100.00;99850.38;5070832;28;20230;-73
2023/06/26 06:03:56;;;;;;;20.15;2.25;;;;;;;28.36;100.00;99854.56;5070831;28;20195;-72
2023/06/26 06:06:24;;;;;;;0.70;0.70;;;;;;;28.04;100.00;99844.00;5070772;28;20285;-74
2023/06/26 06:08:50;;;;;;;1.20;0.70;;;;;;;28.26;100.00;99856.94;5071119;28;20318;-73
2023/06/26 06:11:17;;;;;;;1.45;0.70;;;;;;;28.12;100.00;99834.72;5070842;28;20202;-72
2023/06/26 06:13:44;;;;;;;1.20;0.73;;;;;;;28.13;100.00;99857.78;5070926;28;20207;-72
2023/06/26 06:16:12;;;;;;;0.60;0.60;;;;;;;28.19;99.62;99847.59;5070623;28;20210;-72
2023/06/26 06:18:39;;;;;;;1.17;0.70;;;;;;;28.23;100.00;99853.59;5070440;28;20344;-72
2023/06/26 06:21:05;;;;;;;2.92;1.02;;;;;;;28.49;100.00;99856.38;5035077;28;20207;-73
2023/06/26 06:23:32;;;;;;;0.60;0.60;;;;;;;28.54;100.00;99853.41;5065056;28;20256;-73
2023/06/26 06:25:59;;;;;;;6.35;1.25;;;;;;;28.35;100.00;99861.72;5046115;28;20206;-73
2023/06/26 06:28:26;;;;;;;0.47;0.47;;;;;;;27.19;100.00;99852.63;5031805;28;20720;-73
2023/06/26 06:30:52;;;;;;;0.68;0.68;;;;;;;27.00;100.00;99858.97;5064502;28;20238;-73
2023/06/26 06:33:20;;;;;;;1.30;0.80;;;;;;;27.35;100.00;99845.47;5054967;28;20206;-73
2023/06/26 06:35:47;;;;;;;10.23;1.50;;;;;;;27.07;100.00;99843.53;5058569;28;20206;-73
2023/06/26 06:38:14;;;;;;;1.27;0.90;;;;;;;27.01;100.00;99834.06;5062407;28;20264;-73
2023/06/26 06:40:41;;;;;;;1.50;1.00;;;;;;;27.15;100.00;99841.28;5056794;28;20210;-73
2023/06/26 06:43:08;;;;;;;1.98;0.88;;;;;;;27.38;100.00;99851.50;5020693;28;20674;-73
2023/06/26 06:45:34;;;;;;;0.73;0.73;;;;;;;27.39;100.00;99852.34;5062863;28;20207;-73
2023/06/26 06:48:01;;;;;;;1.20;0.93;;;;;;;27.29;100.00;99859.16;5074028;28;20565;-73
2023/06/26 06:50:29;;;;;;;0.75;0.75;;;;;;;27.03;100.00;99860.63;5074148;28;20657;-74
2023/06/26 06:52:56;;;;;;;1.15;0.85;;;;;;;26.76;100.00;99854.13;5074753;28;20198;-72
2023/06/26 06:55:23;;;;;;;0.77;0.77;;;;;;;27.32;100.00;99851.00;5074308;28;20294;-73
2023/06/26 06:57:51;;;;;;;2.95;0.85;;;;;;;27.26;100.00;99806.06;5074716;28;20245;-74
2023/06/26 07:00:18;;;;;;;0.65;0.65;;;;;;;27.58;100.00;99853.00;5074356;28;20268;-72
2023/06/26 07:02:46;;;;;;;0.88;0.73;;;;;;;27.54;100.00;99855.00;5074244;28;20198;-72
2023/06/26 07:05:13;;;;;;;5.38;1.15;;;;;;;27.89;100.00;99860.09;5062315;28;20837;-73
2023/06/26 07:07:41;;;;;;;0.70;0.70;;;;;;;28.02;100.00;99861.91;5053090;28;20616;-77
2023/06/26 07:10:11;;;;;;;1.20;1.15;;;;;;;28.05;100.00;99860.88;5074051;28;20213;-74
2023/06/26 07:12:38;;;;;;;0.70;0.70;;;;;;;27.95;100.00;99865.91;5070117;28;20214;-75
2023/06/26 07:15:06;;;;;;;9.07;1.25;;;;;;;28.40;100.00;99867.59;5052343;28;20644;-75
2023/06/26 07:17:34;;;;;;;0.70;0.70;;;;;;;28.17;100.00;99864.63;5052139;28;20578;-75
2023/06/26 07:20:04;;;;;;;0.85;0.85;;;;;;;27.43;100.00;99856.56;5061749;28;20210;-76
2023/06/26 07:22:30;;;;;;;0.70;0.70;;;;;;;27.63;100.00;99864.28;5028803;28;20632;-74
2023/06/26 07:24:58;;;;;;;0.60;0.60;;;;;;;27.99;100.00;99866.56;5016479;28;20208;-75
2023/06/26 07:27:26;;;;;;;0.68;0.68;;;;;;;28.35;100.00;99863.50;5031215;28;20203;-75
2023/06/26 07:29:53;;;;;;;1.38;0.80;;;;;;;27.86;100.00;99866.44;5031028;28;20204;-74
2023/06/26 07:32:20;;;;;;;0.73;0.68;;;;;;;28.44;100.00;99862.94;5031105;28;20271;-74
2023/06/26 07:34:46;;;;;;;2.38;0.80;;;;;;;28.55;100.00;99871.13;5031298;28;20200;-75
2023/06/26 07:37:13;;;;;;;0.70;0.70;;;;;;;27.85;100.00;99863.88;5031332;28;20200;-75
2023/06/26 07:39:40;;;;;;;0.70;0.70;;;;;;;28.69;99.31;99870.28;4984505;28;20215;-74
2023/06/26 07:42:08;;;;;;;2.17;0.80;;;;;;;29.37;94.92;99872.09;5035164;28;20206;-75
2023/06/26 07:44:35;;;;;;;2.05;0.80;;;;;;;29.61;93.29;99869.63;5034765;28;20208;-74
2023/06/26 07:47:02;;;;;;;2.55;0.88;;;;;;;29.31;98.84;99855.63;5024943;28;20203;-75
2023/06/26 07:49:28;;;;;;;3.75;1.08;;;;;;;29.83;97.67;99875.25;5053354;28;20219;-74
2023/06/26 07:51:55;;;;;;;0.50;0.50;;;;;;;29.80;93.60;99858.56;5062361;28;20191;-74
2023/06/26 07:54:22;;;;;;;6.88;1.20;;;;;;;29.50;99.12;99866.84;5073268;28;20206;-75
2023/06/26 07:56:56;;;;;;;2.53;0.75;;;;;;;29.88;95.30;99872.31;5072883;28;20207;-74
2023/06/26 07:59:26;;;;;;;2.45;0.73;;;;;;;30.18;89.93;99880.06;5073244;28;20202;-74
2023/06/26 08:01:54;;;;;;;1.85;0.82;;;;;;;30.27;83.35;99887.44;5073173;28;20198;-74
2023/06/26 08:04:22;;;;;;;2.92;1.42;;;;;;;30.36;85.31;99876.06;5072893;28;20198;-74
2023/06/26 08:06:50;;;;;;;0.80;0.55;;;;;;;30.63;80.37;99895.59;5072499;28;20205;-74
2023/06/26 08:09:18;;;;;;;0.75;0.70;;;;;;;30.97;77.30;99870.81;5072819;28;20770;-74
2023/06/26 08:11:46;;;;;;;1.48;0.85;;;;;;;29.91;83.77;99889.00;5059438;28;20246;-74
2023/06/26 08:14:13;;;;;;;2.65;0.80;;;;;;;30.27;81.88;99887.44;5072958;28;20207;-73
2023/06/26 08:16:42;;;;;;;4.03;0.98;;;;;;;30.68;77.98;99853.28;5033804;28;20729;-74
2023/06/26 08:19:09;;;;;;;5.75;1.10;;;;;;;31.06;75.93;99884.53;5052845;28;20207;-74
2023/06/26 08:21:36;;;;;;;0.60;0.60;;;;;;;31.15;75.82;99874.00;5057622;28;20202;-74
2023/06/26 08:24:03;;;;;;;4.38;0.98;;;;;;;31.07;72.43;99880.88;5072651;28;20194;-74
2023/06/26 08:26:30;;;;;;;3.20;1.00;;;;;;;29.57;81.20;99861.94;5037366;28;20194;-74
2023/06/26 08:28:57;;;;;;;5.18;1.05;;;;;;;29.30;82.21;99877.94;5072607;28;20668;-74
2023/06/26 08:31:24;;;;;;;2.58;0.85;;;;;;;29.84;77.29;99877.00;5072371;28;20242;-73
2023/06/26 08:33:52;;;;;;;1.70;0.70;;;;;;;29.71;82.29;99886.78;5072593;28;20202;-74
2023/06/26 08:36:19;;;;;;;1.33;0.98;;;;;;;29.29;84.30;99884.25;5072265;28;20686;-73
2023/06/26 08:38:45;;;;;;;0.65;0.65;;;;;;;28.95;87.82;99873.06;5072092;28;20634;-74
2023/06/26 08:41:12;;;;;;;3.70;0.88;;;;;;;29.11;89.77;99877.41;5072272;28;20592;-74
2023/06/26 08:43:39;;;;;;;0.70;0.70;;;;;;;28.94;95.08;99873.13;5072209;28;20247;-73
2023/06/26 08:46:06;;;;;;;3.85;0.90;;;;;;;29.29;84.61;99863.72;5071811;28;20199;-73
2023/06/26 08:48:33;;;;;;;1.35;0.88;;;;;;;29.91;81.64;99870.28;5052888;28;20222;-73
2023/06/26 08:51:06;;;;;;;2.28;0.90;;;;;;;29.82;82.48;99873.53;5072022;28;20199;-73
2023/06/26 08:53:41;;;;;;;0.63;0.63;;;;;;;28.81;85.17;99867.72;5071888;28;20207;-73
2023/06/26 08:56:09;;;;;;;2.72;1.60;;;;;;;28.06;100.00;99847.44;5071914;28;20195;-73
2023/06/26 08:58:37;;;;;;;0.75;0.75;;;;;;;28.39;100.00;99863.25;5071499;28;20191;-73
2023/06/26 09:01:05;;;;;;;5.18;1.02;;;;;;;28.76;92.20;99859.16;5072246;28;20195;-73
2023/06/26 09:03:33;;;;;;;0.60;0.60;;;;;;;29.15;88.29;99857.53;5059554;28;20202;-73
2023/06/26 09:05:59;;;;;;;12.13;1.55;;;;;;;29.51;88.20;99857.84;5055938;28;20202;-74
2023/06/26 09:08:28;;;;;;;2.72;0.70;;;;;;;29.95;85.73;99858.41;5071249;28;20223;-73
2023/06/26 09:10:55;;;;;;;2.83;0.80;;;;;;;29.99;87.79;99854.56;5035971;28;20199;-74
2023/06/26 09:13:22;;;;;;;0.70;0.70;;;;;;;29.95;88.84;99853.06;5036239;28;20214;-73
2023/06/26 09:15:49;;;;;;;8.30;1.20;;;;;;;29.75;83.46;99848.16;5071140;28;20290;-73
2023/06/26 09:18:20;;;;;;;4.30;0.90;;;;;;;29.19;90.62;99843.88;5070977;28;20264;-73
2023/06/26 09:20:47;;;;;;;1.58;0.98;;;;;;;29.02;89.25;99831.66;5067784;28;20575;-74
2023/06/26 09:23:14;;;;;;;5.18;1.13;;;;;;;28.97;87.29;99836.41;5056809;28;20236;-73
2023/06/26 09:25:43;;;;;;;1.38;0.70;;;;;;;29.36;84.96;99840.16;5066735;28;20630;-73
2023/06/26 09:28:10;;;;;;;0.70;0.70;;;;;;;29.59;81.43;99833.28;5070705;28;20198;-74
2023/06/26 09:30:37;;;;;;;0.60;0.60;;;;;;;29.67;81.00;99847.84;5071080;28;20232;-74
2023/06/26 09:33:15;;;;;;;6.13;1.33;;;;;;;29.92;78.51;99849.75;5071105;28;20206;-74
2023/06/26 09:35:43;;;;;;;0.70;0.70;;;;;;;29.37;82.16;99831.16;5070810;28;20720;-74
2023/06/26 09:38:09;;;;;;;1.63;0.82;;;;;;;29.69;77.77;99839.72;5019149;28;20286;-74
2023/06/26 09:40:38;;;;;;;2.00;0.82;;;;;;;30.10;83.87;99853.84;5071107;28;20673;-74
2023/06/26 09:43:07;;;;;;;3.00;0.93;;;;;;;30.47;79.96;99841.44;5070892;28;20195;-74
2023/06/26 09:45:34;;;;;;;3.53;0.85;;;;;;;30.20;74.22;99854.03;5071010;28;20646;-73
2023/06/26 09:48:03;;;;;;;6.50;1.10;;;;;;;30.63;71.48;99850.09;5072305;28;20646;-74
2023/06/26 09:50:32;;;;;;;4.47;1.08;;;;;;;30.47;73.36;99850.31;5072443;28;20636;-74
2023/06/26 09:52:59;;;;;;;1.88;0.82;;;;;;;30.26;76.44;99848.25;5070742;28;20207;-74
2023/06/26 09:55:27;;;;;;;4.45;1.10;;;;;;;30.36;74.04;99852.00;5070820;28;20195;-74
2023/06/26 09:57:57;;;;;;;11.55;1.45;;;;;;;30.44;73.61;99844.31;5070348;28;20194;-74
2023/06/26 10:00:25;;;;;;;3.20;0.95;;;;;;;30.87;71.22;99848.31;5070940;28;20242;-74
2023/06/26 10:02:52;;;;;;;5.18;1.00;;;;;;;30.92;70.85;99835.47;5070606;28;20598;-75
2023/06/26 10:05:19;;;;;;;6.63;1.15;;;;;;;31.61;68.60;99850.00;5056641;28;20256;-74
2023/06/26 10:07:47;;;;;;;7.88;1.25;;;;;;;31.88;66.51;99858.66;5035330;28;20260;-76
2023/06/26 10:10:16;;;;;;;3.80;1.08;;;;;;;31.53;66.40;99844.41;5067590;28;20245;-71
2023/06/26 10:12:47;;;;;;;1.30;0.80;;;;;;;31.81;68.23;99841.34;5060406;28;20210;-72
2023/06/26 10:15:16;;;;;;;2.08;1.00;;;;;;;31.84;65.25;99848.28;5070560;28;20673;-71
2023/06/26 10:17:47;;;;;;;0.70;0.70;;;;;;;31.38;70.46;99853.53;5069970;28;20704;-71
2023/06/26 10:20:15;;;;;;;3.25;1.65;;;;;;;30.68;75.43;99837.22;5070537;28;20681;-72
2023/06/26 10:22:45;;;;;;;2.40;0.80;;;;;;;30.58;74.61;99836.16;5070820;28;20199;-71
2023/06/26 10:25:15;;;;;;;2.92;0.80;;;;;;;30.29;72.59;99838.19;5071069;28;20206;-71
2023/06/26 10:27:45;;;;;;;0.70;0.70;;;;;;;30.46;75.38;99839.75;5071132;28;20205;-72
2023/06/26 10:30:15;;;;;;;3.03;0.98;;;;;;;30.29;79.21;99837.34;5071003;28;20288;-71
2023/06/26 10:32:42;;;;;;;2.60;0.80;;;;;;;29.52;84.97;99827.50;5071152;28;20202;-71
2023/06/26 10:35:12;;;;;;;2.90;0.93;;;;;;;29.21;86.86;99796.59;5071202;28;20198;-72
2023/06/26 10:37:43;;;;;;;4.00;1.05;;;;;;;29.16;89.75;99803.19;5070833;28;20253;-72
2023/06/26 10:40:10;;;;;;;2.55;0.70;;;;;;;29.02;88.28;99823.63;5070980;28;20282;-72
2023/06/26 10:42:39;;;;;;;1.77;0.70;;;;;;;29.13;91.89;99830.94;5070863;28;20199;-72
2023/06/26 10:45:14;;;;;;;1.55;1.20;;;;;;;30.03;87.23;99823.13;5071139;28;20264;-72
2023/06/26 10:47:42;;;;;;;1.27;0.75;;;;;;;30.13;81.31;99824.19;5070950;28;20198;-72
2023/06/26 10:50:20;;;;;;;3.05;1.00;;;;;;;30.83;73.89;99825.41;5070862;28;20609;-72
2023/06/26 10:53:07;;;;;;;1.25;0.65;;;;;;;31.36;71.12;99823.31;5070901;28;20206;-72
2023/06/26 10:55:34;;;;;;;4.63;1.00;;;;;;;31.21;67.65;99819.13;5070978;28;20203;-72
2023/06/26 10:58:02;;;;;;;3.30;0.70;;;;;;;31.59;70.78;99824.28;5070960;28;20194;-72
2023/06/26 11:00:29;;;;;;;3.15;0.80;;;;;;;32.02;67.18;99832.59;5070817;28;20281;-72
2023/06/26 11:02:56;;;;;;;0.60;0.60;;;;;;;32.98;62.53;99823.13;5070814;28;20681;-72
2023/06/26 11:05:29;;;;;;;5.60;1.10;;;;;;;32.04;65.83;99833.31;5070781;28;20256;-72
2023/06/26 11:08:06;;;;;;;5.32;1.02;;;;;;;31.54;70.45;99838.03;5070999;28;20220;-72
2023/06/26 11:10:53;;;;;;;5.28;1.10;;;;;;;31.52;70.80;99840.00;5037397;28;20219;-72
2023/06/26 11:13:21;;;;;;;2.80;1.05;;;;;;;31.30;73.16;99839.84;5074424;28;20321;-73
2023/06/26 11:15:48;;;;;;;6.10;1.10;;;;;;;31.11;73.77;99842.19;5074370;28;20580;-73
2023/06/26 11:18:15;;;;;;;5.47;1.10;;;;;;;30.40;78.32;99848.16;5074507;28;20203;-73
2023/06/26 11:20:43;;;;;;;3.13;1.15;;;;;;;29.48;82.61;99847.34;5074422;28;20221;-71
2023/06/26 11:23:11;;;;;;;0.82;0.80;;;;;;;28.90;89.83;99855.59;5039410;28;20195;-73
2023/06/26 11:25:38;;;;;;;6.60;1.33;;;;;;;26.56;100.00;99853.41;5039440;28;20288;-71
2023/06/26 11:28:06;;;;;;;0.90;0.90;;;;;;;26.36;100.00;99794.28;5074099;28;20576;-71
2023/06/26 11:30:33;;;;;;;2.13;0.90;;;;;;;26.55;100.00;99846.38;5073856;28;20721;-74
2023/06/26 11:33:07;;;;;;;10.95;2.15;;;;;;;25.90;100.00;99783.38;5074154;28;20203;-71